createdAt,value
2022-07-29T00:01:19.411Z,19.19
2022-07-29T00:04:22.815Z,19.15
2022-07-29T00:07:26.208Z,19.14
2022-07-29T00:10:29.107Z,19.13
2022-07-29T00:13:32.932Z,19.11
2022-07-29T00:16:36.395Z,19.11
2022-07-29T00:19:39.513Z,19.12
2022-07-29T00:22:45.723Z,19.13
2022-07-29T00:25:48.651Z,19.15
2022-07-29T00:28:51.786Z,19.15
2022-07-29T00:31:54.825Z,19.17
2022-07-29T00:35:16.430Z,19.18
2022-07-29T00:38:21.159Z,19.20
2022-07-29T00:41:24.082Z,19.20
2022-07-29T00:44:27.212Z,19.20
2022-07-29T00:47:30.116Z,19.18
2022-07-29T00:50:34.055Z,19.17
2022-07-29T00:53:37.425Z,19.16
2022-07-29T00:56:40.360Z,19.13
2022-07-29T00:59:43.315Z,19.12
2022-07-29T01:02:50.603Z,19.11
2022-07-29T01:05:54.211Z,19.10
2022-07-29T01:08:57.721Z,19.09
2022-07-29T01:12:02.350Z,19.07
2022-07-29T01:15:07.747Z,19.05
2022-07-29T01:18:25.185Z,19.03
2022-07-29T01:21:52.691Z,19.01
2022-07-29T01:25:20.976Z,18.99
2022-07-29T01:28:45.139Z,18.96
2022-07-29T01:32:00.636Z,18.92
2022-07-29T01:35:09.068Z,18.87
2022-07-29T01:38:18.498Z,18.82
2022-07-29T01:41:23.213Z,18.80
2022-07-29T01:44:33.254Z,18.78
2022-07-29T01:47:42.978Z,18.77
2022-07-29T01:50:52.985Z,18.75
2022-07-29T01:54:15.830Z,18.72
2022-07-29T01:57:22.096Z,18.69
2022-07-29T02:00:26.986Z,18.69
2022-07-29T02:03:32.724Z,18.69
2022-07-29T02:06:39.192Z,18.71
2022-07-29T02:09:43.773Z,18.72
2022-07-29T02:12:50.780Z,18.74
2022-07-29T02:15:55.523Z,18.74
2022-07-29T02:19:01.708Z,18.76
2022-07-29T02:22:07.443Z,18.77
2022-07-29T02:25:14.015Z,18.78
2022-07-29T02:28:18.534Z,18.79
2022-07-29T02:31:25.858Z,18.79
2022-07-29T02:34:30.201Z,18.79
2022-07-29T02:37:33.501Z,18.80
2022-07-29T02:40:39.834Z,18.81
2022-07-29T02:43:45.366Z,18.81
2022-07-29T02:47:11.506Z,18.81
2022-07-29T02:50:22.276Z,18.81
2022-07-29T02:53:27.635Z,18.80
2022-07-29T02:56:35.956Z,18.82
2022-07-29T02:59:44.467Z,18.83
2022-07-29T03:02:53.374Z,18.83
2022-07-29T03:05:58.756Z,18.84
2022-07-29T03:09:02.658Z,18.84
2022-07-29T03:12:06.339Z,18.84
2022-07-29T03:15:10.927Z,18.84
2022-07-29T03:18:14.571Z,18.85
2022-07-29T03:21:17.759Z,18.85
2022-07-29T03:24:27.429Z,18.86
2022-07-29T03:27:30.421Z,18.85
2022-07-29T03:30:33.352Z,18.85
2022-07-29T03:33:36.773Z,18.84
2022-07-29T03:36:39.711Z,18.84
2022-07-29T03:39:45.250Z,18.85
2022-07-29T03:42:50.927Z,18.85
2022-07-29T03:45:56.117Z,18.87
2022-07-29T03:49:02.390Z,18.88
2022-07-29T03:52:06.293Z,18.88
2022-07-29T03:55:10.270Z,18.89
2022-07-29T03:58:15.636Z,18.90
2022-07-29T04:01:19.656Z,18.92
2022-07-29T04:04:23.098Z,18.93
2022-07-29T04:07:26.183Z,18.95
2022-07-29T04:10:31.883Z,18.97
2022-07-29T04:13:35.144Z,18.99
2022-07-29T04:16:38.073Z,19.01
2022-07-29T04:19:41.000Z,19.01
2022-07-29T04:22:43.986Z,19.02
2022-07-29T04:25:47.009Z,19.02
2022-07-29T04:28:49.917Z,19.03
2022-07-29T04:31:52.890Z,19.04
2022-07-29T04:34:55.800Z,19.05
2022-07-29T04:37:58.695Z,19.05
2022-07-29T04:41:01.685Z,19.07
2022-07-29T04:44:07.096Z,19.09
2022-07-29T04:47:10.476Z,19.12
2022-07-29T04:50:13.510Z,19.16
2022-07-29T04:53:17.769Z,19.20
2022-07-29T04:56:20.720Z,19.25
2022-07-29T04:59:23.812Z,19.29
2022-07-29T05:02:26.807Z,19.31
2022-07-29T05:05:29.801Z,19.32
2022-07-29T05:08:32.789Z,19.33
2022-07-29T05:11:35.652Z,19.34
2022-07-29T05:14:38.572Z,19.36
2022-07-29T05:17:41.649Z,19.38
2022-07-29T05:20:44.556Z,19.39
2022-07-29T05:23:47.484Z,19.41
2022-07-29T05:26:50.358Z,19.43
2022-07-29T05:29:53.277Z,19.45
2022-07-29T05:32:56.163Z,19.47
2022-07-29T05:36:00.786Z,19.49
2022-07-29T05:39:04.357Z,19.51
2022-07-29T05:42:13.389Z,19.52
2022-07-29T05:45:16.282Z,19.53
2022-07-29T05:48:19.120Z,19.54
2022-07-29T05:51:22.056Z,19.55
2022-07-29T05:54:25.373Z,19.57
2022-07-29T05:57:28.246Z,19.62
2022-07-29T06:00:31.290Z,19.72
2022-07-29T06:03:34.240Z,19.84
2022-07-29T06:06:37.158Z,19.98
2022-07-29T06:09:40.256Z,20.14
2022-07-29T06:12:43.197Z,20.30
2022-07-29T06:15:46.138Z,20.46
2022-07-29T06:18:49.488Z,20.62
2022-07-29T06:21:52.694Z,20.77
2022-07-29T06:24:56.831Z,20.93
2022-07-29T06:27:59.940Z,21.07
2022-07-29T06:31:03.073Z,21.22
2022-07-29T06:34:06.248Z,21.33
2022-07-29T06:37:15.662Z,21.44
2022-07-29T06:40:37.521Z,21.57
2022-07-29T06:43:50.621Z,21.71
2022-07-29T06:46:59.468Z,21.85
2022-07-29T06:50:02.936Z,22.00
2022-07-29T06:53:11.098Z,22.15
2022-07-29T06:56:15.034Z,22.28
2022-07-29T06:59:18.045Z,22.41
2022-07-29T07:02:21.000Z,22.53
2022-07-29T07:05:24.054Z,22.61
2022-07-29T07:08:27.072Z,22.71
2022-07-29T07:11:30.136Z,22.79
2022-07-29T07:14:33.074Z,22.81
2022-07-29T07:17:36.158Z,22.83
2022-07-29T07:20:39.221Z,22.89
2022-07-29T07:23:42.254Z,22.90
2022-07-29T07:26:45.225Z,22.89
2022-07-29T07:29:48.222Z,22.88
2022-07-29T07:32:51.350Z,22.90
2022-07-29T07:35:54.804Z,22.99
2022-07-29T07:38:57.807Z,23.08
2022-07-29T07:42:00.755Z,23.12
2022-07-29T07:45:13.549Z,23.21
2022-07-29T07:48:19.036Z,23.42
2022-07-29T07:51:21.976Z,23.61
2022-07-29T07:54:25.006Z,23.71
2022-07-29T07:57:28.224Z,23.74
2022-07-29T08:00:31.390Z,23.70
2022-07-29T08:03:34.573Z,23.63
2022-07-29T08:06:37.979Z,23.63
2022-07-29T08:09:41.065Z,23.71
2022-07-29T08:12:44.027Z,23.83
2022-07-29T08:15:47.148Z,23.89
2022-07-29T08:18:50.127Z,23.94
2022-07-29T08:21:54.806Z,24.13
2022-07-29T08:25:00.312Z,24.37
2022-07-29T08:28:03.452Z,24.54
2022-07-29T08:31:07.242Z,24.65
2022-07-29T08:34:10.626Z,24.80
2022-07-29T08:37:13.857Z,24.97
2022-07-29T08:40:16.988Z,25.12
2022-07-29T08:43:20.650Z,25.25
2022-07-29T08:46:24.227Z,25.34
2022-07-29T08:49:27.342Z,25.43
2022-07-29T08:52:33.562Z,25.47
2022-07-29T08:55:36.617Z,25.49
2022-07-29T08:58:40.923Z,25.51
2022-07-29T09:01:47.502Z,25.53
2022-07-29T09:04:50.949Z,25.58
2022-07-29T09:07:54.370Z,25.63
2022-07-29T09:10:57.476Z,25.73
2022-07-29T09:14:00.507Z,25.88
2022-07-29T09:17:03.741Z,26.02
2022-07-29T09:20:13.101Z,26.15
2022-07-29T09:23:23.398Z,26.32
2022-07-29T09:26:32.277Z,26.47
2022-07-29T09:29:36.419Z,26.57
2022-07-29T09:32:56.686Z,26.64
2022-07-29T09:36:06.031Z,26.60
2022-07-29T09:39:09.395Z,26.51
2022-07-29T09:42:13.348Z,26.41
2022-07-29T09:45:30.366Z,26.30
2022-07-29T09:48:33.427Z,26.15
2022-07-29T09:51:38.546Z,26.03
2022-07-29T09:54:41.854Z,25.98
2022-07-29T09:57:45.472Z,26.05
2022-07-29T10:00:51.015Z,26.09
2022-07-29T10:03:54.571Z,26.05
2022-07-29T10:07:05.079Z,26.00
2022-07-29T10:10:08.883Z,26.00
2022-07-29T10:13:16.408Z,26.06
2022-07-29T10:16:19.955Z,26.14
2022-07-29T10:19:25.886Z,26.20
2022-07-29T10:22:51.858Z,26.23
2022-07-29T10:25:57.833Z,26.21
2022-07-29T10:29:01.663Z,26.15
2022-07-29T10:32:21.302Z,26.10
2022-07-29T10:35:45.059Z,26.07
2022-07-29T10:39:22.449Z,26.05
2022-07-29T10:42:34.113Z,25.99
2022-07-29T10:45:37.790Z,25.99
2022-07-29T10:49:10.483Z,26.02
2022-07-29T10:52:14.526Z,26.06
2022-07-29T10:55:39.456Z,26.08
2022-07-29T10:59:21.785Z,26.11
2022-07-29T11:02:42.053Z,26.13
2022-07-29T11:05:59.948Z,26.18
2022-07-29T11:09:34.849Z,26.17
2022-07-29T11:12:40.410Z,26.14
2022-07-29T11:15:59.375Z,26.16
2022-07-29T11:19:11.573Z,26.17
2022-07-29T11:22:36.827Z,26.14
2022-07-29T11:26:07.770Z,26.09
2022-07-29T11:29:23.068Z,26.03
2022-07-29T11:32:39.951Z,25.99
2022-07-29T11:35:43.051Z,25.93
2022-07-29T11:39:36.968Z,25.84
2022-07-29T11:42:44.498Z,25.76
2022-07-29T11:45:48.153Z,25.68
2022-07-29T11:48:52.156Z,25.60
2022-07-29T11:51:59.293Z,25.53
2022-07-29T11:55:09.910Z,25.47
2022-07-29T11:58:13.374Z,25.41
2022-07-29T12:01:18.541Z,25.35
2022-07-29T12:04:21.613Z,25.28
2022-07-29T12:07:32.669Z,25.22
2022-07-29T12:10:38.876Z,25.16
2022-07-29T12:13:41.897Z,25.11
2022-07-29T12:16:44.986Z,25.06
2022-07-29T12:19:48.016Z,24.99
2022-07-29T12:22:55.540Z,24.93
2022-07-29T12:26:01.310Z,24.85
2022-07-29T12:29:11.418Z,24.77
2022-07-29T12:32:20.171Z,24.68
2022-07-29T12:35:23.992Z,24.59
2022-07-29T12:38:27.518Z,24.51
2022-07-29T12:41:30.916Z,24.41
2022-07-29T12:44:50.668Z,24.34
2022-07-29T12:47:54.328Z,24.26
2022-07-29T12:51:02.392Z,24.19
2022-07-29T12:54:16.999Z,24.13
2022-07-29T12:57:20.531Z,24.06
2022-07-29T13:00:25.522Z,24.01
2022-07-29T13:03:28.685Z,23.96
2022-07-29T13:06:49.655Z,23.91
2022-07-29T13:09:54.306Z,23.88
2022-07-29T13:13:05.201Z,23.85
2022-07-29T13:16:09.213Z,23.83
2022-07-29T13:19:13.257Z,23.82
2022-07-29T13:22:21.076Z,23.82
2022-07-29T13:25:33.304Z,23.83
2022-07-29T13:28:36.754Z,23.84
2022-07-29T13:31:40.198Z,23.88
2022-07-29T13:34:43.397Z,23.94
2022-07-29T13:37:47.120Z,24.02
2022-07-29T13:40:50.331Z,24.09
2022-07-29T13:43:53.838Z,24.17
2022-07-29T13:46:57.103Z,24.23
2022-07-29T13:50:05.332Z,24.30
2022-07-29T13:53:09.995Z,24.36
2022-07-29T13:56:20.684Z,24.42
2022-07-29T13:59:23.746Z,24.51
2022-07-29T14:02:27.642Z,24.61
2022-07-29T14:05:31.163Z,24.77
2022-07-29T14:09:12.053Z,25.03
2022-07-29T14:12:15.152Z,25.35
2022-07-29T14:15:18.333Z,25.60
2022-07-29T14:18:21.547Z,25.79
2022-07-29T14:21:24.841Z,25.86
2022-07-29T14:24:28.107Z,25.88
2022-07-29T14:27:38.353Z,25.87
2022-07-29T14:30:41.633Z,25.87
2022-07-29T14:33:46.241Z,25.93
2022-07-29T14:36:52.322Z,25.99
2022-07-29T14:40:02.103Z,26.05
2022-07-29T14:43:05.351Z,26.12
2022-07-29T14:46:08.961Z,26.18
2022-07-29T14:49:12.562Z,26.20
2022-07-29T14:52:15.601Z,26.24
2022-07-29T14:55:19.755Z,26.27
2022-07-29T14:58:23.764Z,26.27
2022-07-29T15:01:26.822Z,26.24
2022-07-29T15:04:29.830Z,26.18
2022-07-29T15:07:32.915Z,26.11
2022-07-29T15:10:36.127Z,26.04
2022-07-29T15:13:39.827Z,25.96
2022-07-29T15:16:43.958Z,25.88
2022-07-29T15:19:49.967Z,25.80
2022-07-29T15:22:52.867Z,25.72
2022-07-29T15:25:55.788Z,25.65
2022-07-29T15:28:58.681Z,25.58
2022-07-29T15:32:02.703Z,25.53
2022-07-29T15:35:06.143Z,25.48
2022-07-29T15:38:09.430Z,25.44
2022-07-29T15:41:15.313Z,25.40
2022-07-29T15:44:18.993Z,25.35
2022-07-29T15:47:21.940Z,25.30
2022-07-29T15:50:24.853Z,25.24
2022-07-29T15:53:27.844Z,25.20
2022-07-29T15:56:31.989Z,25.14
2022-07-29T15:59:35.438Z,25.08
2022-07-29T16:02:38.354Z,25.02
2022-07-29T16:05:41.331Z,24.96
2022-07-29T16:08:44.255Z,24.89
2022-07-29T16:11:48.901Z,24.83
2022-07-29T16:14:52.154Z,24.77
2022-07-29T16:17:55.659Z,24.70
2022-07-29T16:20:59.454Z,24.63
2022-07-29T16:24:02.998Z,24.53
2022-07-29T16:27:06.466Z,24.41
2022-07-29T16:30:10.038Z,24.29
2022-07-29T16:33:12.905Z,24.15
2022-07-29T16:36:18.716Z,24.02
2022-07-29T16:39:21.705Z,23.88
2022-07-29T16:42:44.286Z,23.75
2022-07-29T16:45:47.753Z,23.60
2022-07-29T16:48:50.827Z,23.50
2022-07-29T16:51:53.982Z,23.39
2022-07-29T16:54:56.904Z,23.29
2022-07-29T16:58:00.843Z,23.20
2022-07-29T17:01:04.052Z,23.12
2022-07-29T17:04:07.095Z,23.04
2022-07-29T17:07:10.055Z,22.97
2022-07-29T17:10:13.119Z,22.91
2022-07-29T17:13:16.003Z,22.85
2022-07-29T17:16:23.544Z,22.79
2022-07-29T17:19:27.647Z,22.74
2022-07-29T17:22:30.561Z,22.68
2022-07-29T17:25:33.667Z,22.64
2022-07-29T17:28:36.628Z,22.58
2022-07-29T17:31:39.605Z,22.53
2022-07-29T17:34:43.244Z,22.49
2022-07-29T17:37:46.700Z,22.45
2022-07-29T17:40:50.485Z,22.41
2022-07-29T17:43:54.320Z,22.35
2022-07-29T17:46:57.409Z,22.30
2022-07-29T17:50:00.586Z,22.26
2022-07-29T17:54:17.269Z,22.22
2022-07-29T17:57:20.158Z,22.20
2022-07-29T18:00:24.838Z,22.18
2022-07-29T18:03:27.915Z,22.16
2022-07-29T18:06:30.832Z,22.14
2022-07-29T18:09:33.840Z,22.11
2022-07-29T18:12:36.732Z,22.08
2022-07-29T18:15:40.574Z,22.08
2022-07-29T18:18:47.350Z,22.06
2022-07-29T18:21:54.681Z,22.05
2022-07-29T18:24:59.072Z,22.04
2022-07-29T18:28:01.994Z,22.02
2022-07-29T18:31:05.980Z,22.01
2022-07-29T18:34:08.910Z,22.00
2022-07-29T18:37:11.790Z,21.97
2022-07-29T18:40:15.091Z,21.96
2022-07-29T18:43:20.436Z,21.93
2022-07-29T18:46:23.453Z,21.91
2022-07-29T18:49:29.121Z,21.89
2022-07-29T18:52:33.460Z,21.86
2022-07-29T18:55:36.540Z,21.83
2022-07-29T18:58:40.120Z,21.82
2022-07-29T19:01:44.341Z,21.79
2022-07-29T19:04:49.911Z,21.77
2022-07-29T19:07:54.941Z,21.74
2022-07-29T19:10:58.194Z,21.72
2022-07-29T19:14:01.529Z,21.71
2022-07-29T19:17:04.531Z,21.68
2022-07-29T19:20:08.156Z,21.66
2022-07-29T19:23:12.099Z,21.64
2022-07-29T19:26:20.341Z,21.62
2022-07-29T19:29:25.416Z,21.61
2022-07-29T19:32:28.673Z,21.59
2022-07-29T19:35:31.761Z,21.58
2022-07-29T19:38:38.242Z,21.55
2022-07-29T19:41:41.507Z,21.53
2022-07-29T19:44:44.535Z,21.51
2022-07-29T19:47:48.421Z,21.49
2022-07-29T19:52:19.276Z,21.46
2022-07-29T19:55:23.569Z,21.45
2022-07-29T19:58:27.133Z,21.43
2022-07-29T20:01:32.243Z,21.42
2022-07-29T20:04:35.555Z,21.40
2022-07-29T20:07:39.628Z,21.39
2022-07-29T20:10:43.215Z,21.40
2022-07-29T20:13:46.389Z,21.40
2022-07-29T20:16:50.516Z,21.39
2022-07-29T20:19:53.626Z,21.38
2022-07-29T20:22:57.337Z,21.38
2022-07-29T20:26:00.409Z,21.36
2022-07-29T20:29:05.516Z,21.35
2022-07-29T20:32:12.078Z,21.34
2022-07-29T20:35:15.141Z,21.32
2022-07-29T20:38:18.525Z,21.30
2022-07-29T20:41:22.168Z,21.29
2022-07-29T20:44:25.073Z,21.28
2022-07-29T20:47:28.015Z,21.27
2022-07-29T20:50:31.033Z,21.26
2022-07-29T20:53:34.165Z,21.24
2022-07-29T20:56:37.095Z,21.23
2022-07-29T20:59:44.056Z,21.21
2022-07-29T21:02:48.686Z,21.20
2022-07-29T21:05:52.018Z,21.19
2022-07-29T21:08:57.903Z,21.17
2022-07-29T21:12:02.176Z,21.16
2022-07-29T21:15:08.432Z,21.14
2022-07-29T21:18:26.971Z,21.14
2022-07-29T21:21:29.873Z,21.13
2022-07-29T21:24:32.781Z,21.12
2022-07-29T21:27:54.626Z,21.10
2022-07-29T21:31:00.166Z,21.08
2022-07-29T21:34:03.213Z,21.08
2022-07-29T21:37:06.063Z,21.07
2022-07-29T21:40:10.778Z,21.06
2022-07-29T21:43:13.979Z,21.06
2022-07-29T21:46:18.184Z,21.06
2022-07-29T21:49:21.172Z,21.05
2022-07-29T21:52:24.069Z,21.05
2022-07-29T21:55:27.817Z,21.04
2022-07-29T21:58:32.189Z,21.04
2022-07-29T22:01:39.061Z,21.03
2022-07-29T22:04:42.577Z,21.02
2022-07-29T22:07:54.220Z,21.02
2022-07-29T22:10:58.219Z,21.01
2022-07-29T22:14:01.178Z,21.00
2022-07-29T22:17:04.389Z,20.99
2022-07-29T22:20:08.025Z,20.98
2022-07-29T22:23:10.893Z,20.98
2022-07-29T22:26:13.848Z,20.97
2022-07-29T22:29:17.809Z,20.96
2022-07-29T22:32:20.768Z,20.96
2022-07-29T22:35:23.729Z,20.95
2022-07-29T22:38:26.621Z,20.94
2022-07-29T22:41:29.506Z,20.95
2022-07-29T22:44:32.449Z,20.94
2022-07-29T22:47:45.869Z,20.93
2022-07-29T22:50:51.693Z,20.92
2022-07-29T22:53:54.808Z,20.92
2022-07-29T22:56:57.799Z,20.91
2022-07-29T23:00:02.371Z,20.90
2022-07-29T23:03:05.356Z,20.90
2022-07-29T23:06:08.264Z,20.89
2022-07-29T23:09:11.154Z,20.88
2022-07-29T23:12:14.034Z,20.88
2022-07-29T23:15:17.007Z,20.88
2022-07-29T23:18:21.080Z,20.87
2022-07-29T23:21:24.624Z,20.85
2022-07-29T23:24:27.608Z,20.85
2022-07-29T23:27:30.524Z,20.84
2022-07-29T23:30:33.459Z,20.83
2022-07-29T23:33:36.390Z,20.81
2022-07-29T23:36:39.426Z,20.79
2022-07-29T23:39:42.388Z,20.77
2022-07-29T23:42:46.078Z,20.75
2022-07-29T23:45:49.069Z,20.73
2022-07-29T23:48:52.107Z,20.72
2022-07-29T23:51:55.000Z,20.70
2022-07-29T23:55:37.846Z,20.68
2022-07-29T23:58:21.006Z,20.66
